Arapahoe, North Carolina
Current Conditions -  °F | °C
As of 11:54 AM on Sunday 23 Nov 2014 (Local Time) from KNKT Reporting Station
Light Rain Light Rain  
Wind Chill: 14°   Ceiling: 11000
Heat Index: 14°   Visibility: 8mi
Dew Point: 13°   Wind: 3mph
Humidity: 93%   Direction: 100°E
Pressure: 30.19"   Gusts: NA
Location:  35.03°N, 76.83°W
Report Text: KNKT 231654Z 10003KT 8SM -RA BKN110 14/13 A3019 RMK AO2 SLP221 P0001 T01440133 $
Loading
Personal Weather Stations






























Interactive Weather Map New forecast layout! Learn more

10-Day Weather Forecast

Advertisements
Track Severe Weather on mobile